sensor_id;sensor_type;location;lat;lon;timestamp;pressure;altitude;pressure_sealevel;temperature;humidity
70127;BME280;57491;42.694;23.314;2022-08-07T00:01:45;94828.16;;;25.37;45.54
70127;BME280;57491;42.694;23.314;2022-08-07T00:04:12;94826.84;;;25.40;45.23
70127;BME280;57491;42.694;23.314;2022-08-07T00:06:39;94825.75;;;25.41;45.01
70127;BME280;57491;42.694;23.314;2022-08-07T00:09:07;94802.75;;;25.21;44.98
70127;BME280;57491;42.694;23.314;2022-08-07T00:11:34;94831.41;;;25.34;45.17
70127;BME280;57491;42.694;23.314;2022-08-07T00:14:01;94836.50;;;25.25;44.93
70127;BME280;57491;42.694;23.314;2022-08-07T00:16:28;94831.22;;;25.20;45.27
70127;BME280;57491;42.694;23.314;2022-08-07T00:18:57;94825.38;;;25.18;45.60
70127;BME280;57491;42.694;23.314;2022-08-07T00:21:24;94836.31;;;25.17;45.64
70127;BME280;57491;42.694;23.314;2022-08-07T00:23:51;94832.31;;;25.14;45.08
70127;BME280;57491;42.694;23.314;2022-08-07T00:26:18;94833.97;;;25.05;45.89
70127;BME280;57491;42.694;23.314;2022-08-07T00:28:45;94834.75;;;25.06;46.07
70127;BME280;57491;42.694;23.314;2022-08-07T00:31:12;94844.59;;;25.05;46.05
70127;BME280;57491;42.694;23.314;2022-08-07T00:33:40;94836.13;;;24.98;46.25
70127;BME280;57491;42.694;23.314;2022-08-07T00:36:08;94827.66;;;24.91;46.38
70127;BME280;57491;42.694;23.314;2022-08-07T00:38:36;94827.66;;;24.91;46.98
70127;BME280;57491;42.694;23.314;2022-08-07T00:41:05;94850.19;;;25.04;47.29
70127;BME280;57491;42.694;23.314;2022-08-07T00:43:32;94839.31;;;25.00;47.42
70127;BME280;57491;42.694;23.314;2022-08-07T00:46:00;94837.41;;;25.06;47.65
70127;BME280;57491;42.694;23.314;2022-08-07T00:48:27;94826.53;;;25.02;47.63
70127;BME280;57491;42.694;23.314;2022-08-07T00:50:54;94850.75;;;25.01;48.00
70127;BME280;57491;42.694;23.314;2022-08-07T00:53:23;94841.47;;;24.98;47.85
70127;BME280;57491;42.694;23.314;2022-08-07T00:55:50;94839.31;;;25.00;47.70
70127;BME280;57491;42.694;23.314;2022-08-07T00:58:19;94838.25;;;24.96;47.50
70127;BME280;57491;42.694;23.314;2022-08-07T01:00:47;94845.19;;;24.97;47.94
70127;BME280;57491;42.694;23.314;2022-08-07T01:03:15;94845.72;;;24.94;47.91
70127;BME280;57491;42.694;23.314;2022-08-07T01:05:44;94818.91;;;24.80;47.92
70127;BME280;57491;42.694;23.314;2022-08-07T01:08:12;94837.75;;;24.94;47.78
70127;BME280;57491;42.694;23.314;2022-08-07T01:10:41;94835.63;;;24.91;47.37
70127;BME280;57491;42.694;23.314;2022-08-07T01:13:09;94828.50;;;24.76;47.97
70127;BME280;57491;42.694;23.314;2022-08-07T01:15:36;94837.22;;;24.82;48.03
70127;BME280;57491;42.694;23.314;2022-08-07T01:18:05;94844.75;;;24.70;48.18
70127;BME280;57491;42.694;23.314;2022-08-07T01:20:37;94847.97;;;24.62;48.17
70127;BME280;57491;42.694;23.314;2022-08-07T01:23:09;94860.16;;;24.68;48.08
70127;BME280;57491;42.694;23.314;2022-08-07T01:25:38;94853.06;;;24.48;47.48
70127;BME280;57491;42.694;23.314;2022-08-07T01:28:06;94866.31;;;24.58;47.05
70127;BME280;57491;42.694;23.314;2022-08-07T01:30:35;94861.03;;;24.53;46.90
70127;BME280;57491;42.694;23.314;2022-08-07T01:33:03;94858.06;;;24.55;47.02
70127;BME280;57491;42.694;23.314;2022-08-07T01:35:31;94845.59;;;24.50;46.95
70127;BME280;57491;42.694;23.314;2022-08-07T01:37:58;94859.41;;;24.57;46.59
70127;BME280;57491;42.694;23.314;2022-08-07T01:40:27;94864.50;;;24.49;46.52
70127;BME280;57491;42.694;23.314;2022-08-07T01:42:55;94873.25;;;24.49;46.53
70127;BME280;57491;42.694;23.314;2022-08-07T01:45:22;94863.69;;;24.48;46.91
70127;BME280;57491;42.694;23.314;2022-08-07T01:47:51;94867.41;;;24.47;46.64
70127;BME280;57491;42.694;23.314;2022-08-07T01:50:18;94874.56;;;24.52;46.93
70127;BME280;57491;42.694;23.314;2022-08-07T01:52:48;94899.56;;;24.51;46.88
70127;BME280;57491;42.694;23.314;2022-08-07T01:55:19;94900.13;;;24.37;46.81
70127;BME280;57491;42.694;23.314;2022-08-07T01:57:51;94936.81;;;24.40;47.08
70127;BME280;57491;42.694;23.314;2022-08-07T02:00:21;94947.97;;;24.22;47.25
70127;BME280;57491;42.694;23.314;2022-08-07T02:02:56;94957.00;;;24.21;48.01
70127;BME280;57491;42.694;23.314;2022-08-07T02:05:26;94953.28;;;24.22;48.76
70127;BME280;57491;42.694;23.314;2022-08-07T02:07:57;94929.09;;;24.09;49.56
70127;BME280;57491;42.694;23.314;2022-08-07T02:10:25;94959.13;;;24.29;50.05
70127;BME280;57491;42.694;23.314;2022-08-07T02:12:58;94960.19;;;24.28;50.43
70127;BME280;57491;42.694;23.314;2022-08-07T02:15:26;94959.66;;;24.26;51.04
70127;BME280;57491;42.694;23.314;2022-08-07T02:17:56;94962.31;;;24.26;51.23
70127;BME280;57491;42.694;23.314;2022-08-07T02:20:24;94952.72;;;24.15;51.86
70127;BME280;57491;42.694;23.314;2022-08-07T02:22:51;94963.38;;;24.20;54.56
70127;BME280;57491;42.694;23.314;2022-08-07T02:25:19;94946.38;;;24.16;55.76
70127;BME280;57491;42.694;23.314;2022-08-07T02:27:48;94929.88;;;23.89;57.27
70127;BME280;57491;42.694;23.314;2022-08-07T02:30:17;94912.78;;;23.34;57.97
70127;BME280;57491;42.694;23.314;2022-08-07T02:32:46;94914.56;;;23.08;59.93
70127;BME280;57491;42.694;23.314;2022-08-07T02:35:14;94888.28;;;22.92;60.49
70127;BME280;57491;42.694;23.314;2022-08-07T02:37:44;94911.03;;;22.88;61.59
70127;BME280;57491;42.694;23.314;2022-08-07T02:40:12;94905.59;;;22.62;62.06
70127;BME280;57491;42.694;23.314;2022-08-07T02:42:40;94895.97;;;22.46;62.03
70127;BME280;57491;42.694;23.314;2022-08-07T02:45:11;94885.88;;;22.43;62.08
70127;BME280;57491;42.694;23.314;2022-08-07T02:47:41;94883.44;;;22.32;62.28
70127;BME280;57491;42.694;23.314;2022-08-07T02:50:08;94886.13;;;22.37;61.80
70127;BME280;57491;42.694;23.314;2022-08-07T02:52:39;94877.06;;;22.28;62.77
70127;BME280;57491;42.694;23.314;2022-08-07T02:55:18;94899.69;;;22.45;62.34
70127;BME280;57491;42.694;23.314;2022-08-07T02:57:46;94900.28;;;22.62;62.67
70127;BME280;57491;42.694;23.314;2022-08-07T03:00:14;94894.81;;;22.79;63.35
70127;BME280;57491;42.694;23.314;2022-08-07T03:02:47;94887.16;;;22.88;63.19
70127;BME280;57491;42.694;23.314;2022-08-07T03:05:17;94882.97;;;22.92;63.30
70127;BME280;57491;42.694;23.314;2022-08-07T03:07:45;94880.56;;;22.90;60.64
70127;BME280;57491;42.694;23.314;2022-08-07T03:10:12;94873.63;;;22.84;61.48
70127;BME280;57491;42.694;23.314;2022-08-07T03:12:40;94867.81;;;22.82;61.97
70127;BME280;57491;42.694;23.314;2022-08-07T03:15:08;94870.19;;;22.84;61.83
70127;BME280;57491;42.694;23.314;2022-08-07T03:17:36;94876.63;;;23.03;62.28
70127;BME280;57491;42.694;23.314;2022-08-07T03:20:06;94880.91;;;23.09;62.81
70127;BME280;57491;42.694;23.314;2022-08-07T03:22:35;94889.94;;;23.18;63.15
70127;BME280;57491;42.694;23.314;2022-08-07T03:25:04;94876.13;;;23.16;62.03
70127;BME280;57491;42.694;23.314;2022-08-07T03:27:32;94888.38;;;23.27;61.86
70127;BME280;57491;42.694;23.314;2022-08-07T03:30:00;94885.97;;;23.31;64.03
70127;BME280;57491;42.694;23.314;2022-08-07T03:32:32;94888.38;;;23.32;63.98
70127;BME280;57491;42.694;23.314;2022-08-07T03:35:02;94882.00;;;23.38;62.54
70127;BME280;57491;42.694;23.314;2022-08-07T03:37:33;94882.28;;;23.42;62.46
70127;BME280;57491;42.694;23.314;2022-08-07T03:40:03;94859.72;;;23.34;62.04
70127;BME280;57491;42.694;23.314;2022-08-07T03:42:32;94864.50;;;23.32;62.00
70127;BME280;57491;42.694;23.314;2022-08-07T03:45:00;94863.97;;;23.40;61.83
70127;BME280;57491;42.694;23.314;2022-08-07T03:47:28;94886.59;;;23.58;62.28
70127;BME280;57491;42.694;23.314;2022-08-07T03:49:56;94884.75;;;23.64;61.63
70127;BME280;57491;42.694;23.314;2022-08-07T03:52:26;94895.63;;;23.67;61.31
70127;BME280;57491;42.694;23.314;2022-08-07T03:54:55;94908.34;;;23.75;61.74
70127;BME280;57491;42.694;23.314;2022-08-07T03:57:24;94903.84;;;23.76;61.61
70127;BME280;57491;42.694;23.314;2022-08-07T03:59:53;94905.44;;;23.87;60.92
70127;BME280;57491;42.694;23.314;2022-08-07T04:02:21;94902.78;;;23.97;60.99
70127;BME280;57491;42.694;23.314;2022-08-07T04:04:49;94895.63;;;23.97;59.96
70127;BME280;57491;42.694;23.314;2022-08-07T04:07:16;94882.88;;;23.99;59.92
70127;BME280;57491;42.694;23.314;2022-08-07T04:09:45;94900.94;;;24.23;59.21
70127;BME280;57491;42.694;23.314;2022-08-07T04:12:14;94910.22;;;24.30;59.20
70127;BME280;57491;42.694;23.314;2022-08-07T04:14:43;94904.38;;;24.28;58.54
70127;BME280;57491;42.694;23.314;2022-08-07T04:17:11;94922.72;;;24.45;57.66
70127;BME280;57491;42.694;23.314;2022-08-07T04:19:39;94895.28;;;24.50;57.46
70127;BME280;57491;42.694;23.314;2022-08-07T04:22:06;94908.00;;;24.73;57.62
70127;BME280;57491;42.694;23.314;2022-08-07T04:24:34;94915.94;;;24.83;56.75
70127;BME280;57491;42.694;23.314;2022-08-07T04:27:03;94915.16;;;24.93;56.68
70127;BME280;57491;42.694;23.314;2022-08-07T04:29:31;94928.19;;;24.94;56.18
70127;BME280;57491;42.694;23.314;2022-08-07T04:31:59;94910.91;;;24.86;56.11
70127;BME280;57491;42.694;23.314;2022-08-07T04:34:28;94930.28;;;24.97;56.34
70127;BME280;57491;42.694;23.314;2022-08-07T04:36:55;94929.72;;;25.00;55.77
70127;BME280;57491;42.694;23.314;2022-08-07T04:39:23;94936.91;;;25.00;56.08
70127;BME280;57491;42.694;23.314;2022-08-07T04:41:50;94931.34;;;24.96;55.75
70127;BME280;57491;42.694;23.314;2022-08-07T04:44:17;94929.00;;;24.90;56.10
70127;BME280;57491;42.694;23.314;2022-08-07T04:46:51;94929.78;;;24.90;56.24
70127;BME280;57491;42.694;23.314;2022-08-07T04:49:27;94913.31;;;24.88;57.14
70127;BME280;57491;42.694;23.314;2022-08-07T04:52:03;94931.34;;;24.96;57.03
70127;BME280;57491;42.694;23.314;2022-08-07T04:54:35;94935.56;;;25.07;57.79
70127;BME280;57491;42.694;23.314;2022-08-07T04:57:10;94943.56;;;25.07;57.69
70127;BME280;57491;42.694;23.314;2022-08-07T04:59:46;94945.63;;;25.20;57.33
70127;BME280;57491;42.694;23.314;2022-08-07T05:02:23;94950.03;;;25.40;55.94
70127;BME280;57491;42.694;23.314;2022-08-07T05:04:57;94937.00;;;25.44;54.82
70127;BME280;57491;42.694;23.314;2022-08-07T05:07:32;94952.84;;;25.69;54.26
70127;BME280;57491;42.694;23.314;2022-08-07T05:10:05;94948.50;;;25.83;53.60
70127;BME280;57491;42.694;23.314;2022-08-07T05:12:39;94954.31;;;25.85;53.76
70127;BME280;57491;42.694;23.314;2022-08-07T05:15:13;94952.25;;;25.77;53.64
70127;BME280;57491;42.694;23.314;2022-08-07T05:17:46;94950.91;;;25.85;53.32
70127;BME280;57491;42.694;23.314;2022-08-07T05:20:16;94960.59;;;26.04;53.31
70127;BME280;57491;42.694;23.314;2022-08-07T05:22:48;94956.22;;;26.24;52.22
70127;BME280;57491;42.694;23.314;2022-08-07T05:25:18;94960.50;;;26.48;51.85
70127;BME280;57491;42.694;23.314;2022-08-07T05:27:47;94962.19;;;26.68;50.91
70127;BME280;57491;42.694;23.314;2022-08-07T05:30:15;94959.75;;;26.72;51.16
70127;BME280;57491;42.694;23.314;2022-08-07T05:32:45;94961.59;;;26.76;50.83
70127;BME280;57491;42.694;23.314;2022-08-07T05:35:13;94958.75;;;26.96;50.26
70127;BME280;57491;42.694;23.314;2022-08-07T05:37:44;94958.91;;;27.05;49.82
70127;BME280;57491;42.694;23.314;2022-08-07T05:40:12;94960.63;;;27.20;49.53
70127;BME280;57491;42.694;23.314;2022-08-07T05:42:42;94965.59;;;27.26;49.10
70127;BME280;57491;42.694;23.314;2022-08-07T05:45:10;94967.84;;;27.38;48.33
70127;BME280;57491;42.694;23.314;2022-08-07T05:47:38;94981.97;;;27.62;48.18
70127;BME280;57491;42.694;23.314;2022-08-07T05:50:07;94991.81;;;27.85;47.54
70127;BME280;57491;42.694;23.314;2022-08-07T05:52:34;94994.56;;;27.99;46.08
70127;BME280;57491;42.694;23.314;2022-08-07T05:55:02;95000.00;;;28.13;45.23
70127;BME280;57491;42.694;23.314;2022-08-07T05:57:29;95003.78;;;28.07;45.23
70127;BME280;57491;42.694;23.314;2022-08-07T05:59:57;94996.09;;;28.05;45.36
70127;BME280;57491;42.694;23.314;2022-08-07T06:02:28;95007.28;;;28.26;45.22
70127;BME280;57491;42.694;23.314;2022-08-07T06:05:00;95013.56;;;28.35;44.64
70127;BME280;57491;42.694;23.314;2022-08-07T06:07:30;95012.88;;;28.43;44.12
70127;BME280;57491;42.694;23.314;2022-08-07T06:09:58;95017.19;;;28.58;44.38
70127;BME280;57491;42.694;23.314;2022-08-07T06:12:27;95020.78;;;28.67;44.09
70127;BME280;57491;42.694;23.314;2022-08-07T06:14:56;95008.69;;;28.69;43.73
70127;BME280;57491;42.694;23.314;2022-08-07T06:17:25;95011.75;;;28.81;43.27
70127;BME280;57491;42.694;23.314;2022-08-07T06:19:53;95014.56;;;29.04;43.14
70127;BME280;57491;42.694;23.314;2022-08-07T06:22:20;95011.78;;;29.09;42.67
70127;BME280;57491;42.694;23.314;2022-08-07T06:24:49;95018.72;;;29.10;41.76
70127;BME280;57491;42.694;23.314;2022-08-07T06:27:20;95009.78;;;29.14;41.52
70127;BME280;57491;42.694;23.314;2022-08-07T06:29:47;95013.00;;;29.30;40.67
70127;BME280;57491;42.694;23.314;2022-08-07T06:32:15;95016.38;;;29.49;41.16
70127;BME280;57491;42.694;23.314;2022-08-07T06:34:41;95013.19;;;29.61;41.33
70127;BME280;57491;42.694;23.314;2022-08-07T06:37:09;95006.94;;;29.65;41.93
70127;BME280;57491;42.694;23.314;2022-08-07T06:39:36;95012.16;;;29.84;41.53
70127;BME280;57491;42.694;23.314;2022-08-07T06:42:09;95006.91;;;29.93;41.10
70127;BME280;57491;42.694;23.314;2022-08-07T06:44:38;95005.22;;;29.97;40.69
70127;BME280;57491;42.694;23.314;2022-08-07T06:47:06;95002.19;;;30.12;40.42
70127;BME280;57491;42.694;23.314;2022-08-07T06:49:34;95002.63;;;30.28;40.42
70127;BME280;57491;42.694;23.314;2022-08-07T06:52:01;95002.69;;;30.36;40.21
70127;BME280;57491;42.694;23.314;2022-08-07T06:54:30;95001.38;;;30.47;38.49
70127;BME280;57491;42.694;23.314;2022-08-07T06:56:58;95001.47;;;30.42;38.94
70127;BME280;57491;42.694;23.314;2022-08-07T06:59:31;95008.53;;;30.38;38.68
70127;BME280;57491;42.694;23.314;2022-08-07T07:02:00;94986.97;;;30.43;39.19
70127;BME280;57491;42.694;23.314;2022-08-07T07:04:28;95012.66;;;30.58;39.27
70127;BME280;57491;42.694;23.314;2022-08-07T07:06:57;95016.38;;;30.71;38.28
70127;BME280;57491;42.694;23.314;2022-08-07T07:09:25;95014.84;;;30.78;38.17
70127;BME280;57491;42.694;23.314;2022-08-07T07:12:16;95006.06;;;30.95;38.77
70127;BME280;57491;42.694;23.314;2022-08-07T07:14:51;95008.94;;;30.98;36.73
70127;BME280;57491;42.694;23.314;2022-08-07T07:17:25;94990.81;;;31.04;36.01
70127;BME280;57491;42.694;23.314;2022-08-07T07:19:57;95006.06;;;30.95;36.89
70127;BME280;57491;42.694;23.314;2022-08-07T07:22:26;95007.25;;;31.03;37.67
70127;BME280;57491;42.694;23.314;2022-08-07T07:24:55;95007.72;;;31.05;36.03
70127;BME280;57491;42.694;23.314;2022-08-07T07:27:28;95002.44;;;31.22;35.90
70127;BME280;57491;42.694;23.314;2022-08-07T07:30:02;95004.06;;;31.40;35.45
70127;BME280;57491;42.694;23.314;2022-08-07T07:32:33;95013.97;;;31.62;35.58
70127;BME280;57491;42.694;23.314;2022-08-07T07:35:04;95005.47;;;31.85;35.40
70127;BME280;57491;42.694;23.314;2022-08-07T07:37:33;95013.56;;;31.94;34.35
70127;BME280;57491;42.694;23.314;2022-08-07T07:40:10;95004.09;;;32.05;34.02
70127;BME280;57491;42.694;23.314;2022-08-07T07:42:39;95019.31;;;32.18;33.25
70127;BME280;57491;42.694;23.314;2022-08-07T07:45:09;95002.38;;;32.26;32.92
70127;BME280;57491;42.694;23.314;2022-08-07T07:47:41;95019.63;;;32.25;32.93
70127;BME280;57491;42.694;23.314;2022-08-07T07:50:10;94995.25;;;32.13;33.43
70127;BME280;57491;42.694;23.314;2022-08-07T07:52:40;95009.47;;;32.40;32.16
70127;BME280;57491;42.694;23.314;2022-08-07T07:55:09;95014.69;;;32.53;32.38
70127;BME280;57491;42.694;23.314;2022-08-07T07:57:38;95023.56;;;32.54;32.34
70127;BME280;57491;42.694;23.314;2022-08-07T08:00:09;95003.28;;;32.56;32.17
70127;BME280;57491;42.694;23.314;2022-08-07T08:02:37;95018.16;;;32.80;31.63
70127;BME280;57491;42.694;23.314;2022-08-07T08:05:08;95027.00;;;32.89;31.49
70127;BME280;57491;42.694;23.314;2022-08-07T08:07:37;95025.84;;;33.15;31.42
70127;BME280;57491;42.694;23.314;2022-08-07T08:10:07;95025.44;;;33.43;31.35
70127;BME280;57491;42.694;23.314;2022-08-07T08:12:37;95031.63;;;33.43;31.02
70127;BME280;57491;42.694;23.314;2022-08-07T08:15:09;95025.69;;;33.21;31.58
70127;BME280;57491;42.694;23.314;2022-08-07T08:18:02;95026.50;;;33.50;30.65
70127;BME280;57491;42.694;23.314;2022-08-07T08:21:06;95021.41;;;33.57;30.28
70127;BME280;57491;42.694;23.314;2022-08-07T08:23:54;95020.03;;;33.81;30.30
70127;BME280;57491;42.694;23.314;2022-08-07T08:26:40;95033.09;;;33.99;30.06
70127;BME280;57491;42.694;23.314;2022-08-07T08:29:26;95034.09;;;34.16;29.36
70127;BME280;57491;42.694;23.314;2022-08-07T08:31:58;95031.03;;;34.26;28.92
70127;BME280;57491;42.694;23.314;2022-08-07T08:34:27;95029.97;;;34.39;29.24
70127;BME280;57491;42.694;23.314;2022-08-07T08:36:56;95026.53;;;34.30;29.10
70127;BME280;57491;42.694;23.314;2022-08-07T08:39:25;95033.59;;;34.43;29.76
70127;BME280;57491;42.694;23.314;2022-08-07T08:41:58;95031.56;;;34.40;29.77
70127;BME280;57491;42.694;23.314;2022-08-07T08:44:34;95027.16;;;34.35;29.43
70127;BME280;57491;42.694;23.314;2022-08-07T08:47:07;95025.44;;;34.31;29.00
70127;BME280;57491;42.694;23.314;2022-08-07T08:49:52;95031.88;;;34.38;28.62
70127;BME280;57491;42.694;23.314;2022-08-07T08:52:30;95010.06;;;34.23;28.83
70127;BME280;57491;42.694;23.314;2022-08-07T08:55:02;95020.13;;;34.55;28.47
70127;BME280;57491;42.694;23.314;2022-08-07T08:57:36;95031.34;;;34.99;28.10
70127;BME280;57491;42.694;23.314;2022-08-07T09:00:06;95018.75;;;35.03;28.44
70127;BME280;57491;42.694;23.314;2022-08-07T09:02:46;95010.13;;;35.33;28.13
70127;BME280;57491;42.694;23.314;2022-08-07T09:05:22;95011.81;;;35.62;27.28
70127;BME280;57491;42.694;23.314;2022-08-07T09:07:56;95019.94;;;35.99;26.60
70127;BME280;57491;42.694;23.314;2022-08-07T09:10:31;95025.47;;;36.02;26.54
70127;BME280;57491;42.694;23.314;2022-08-07T09:13:21;95002.44;;;36.08;26.09
70127;BME280;57491;42.694;23.314;2022-08-07T09:16:17;95019.34;;;36.57;26.22
70127;BME280;57491;42.694;23.314;2022-08-07T09:19:06;95017.19;;;36.91;25.70
70127;BME280;57491;42.694;23.314;2022-08-07T09:21:48;95009.97;;;36.67;25.77
70127;BME280;57491;42.694;23.314;2022-08-07T09:24:28;95011.00;;;36.62;25.78
70127;BME280;57491;42.694;23.314;2022-08-07T09:27:04;94996.63;;;36.74;26.02
70127;BME280;57491;42.694;23.314;2022-08-07T09:29:45;95015.09;;;37.00;25.57
70127;BME280;57491;42.694;23.314;2022-08-07T09:32:24;94983.47;;;37.20;25.45
70127;BME280;57491;42.694;23.314;2022-08-07T09:35:05;94995.31;;;37.59;24.27
70127;BME280;57491;42.694;23.314;2022-08-07T09:37:39;94990.31;;;37.45;24.93
70127;BME280;57491;42.694;23.314;2022-08-07T09:40:15;94975.09;;;37.40;23.73
70127;BME280;57491;42.694;23.314;2022-08-07T09:42:49;94988.97;;;37.70;23.27
70127;BME280;57491;42.694;23.314;2022-08-07T09:45:26;94987.84;;;37.87;23.13
70127;BME280;57491;42.694;23.314;2022-08-07T09:48:08;94988.31;;;38.08;23.12
70127;BME280;57491;42.694;23.314;2022-08-07T09:50:53;94991.69;;;38.21;23.04
70127;BME280;57491;42.694;23.314;2022-08-07T09:53:23;94989.59;;;38.14;22.90
70127;BME280;57491;42.694;23.314;2022-08-07T09:56:09;94981.91;;;38.35;22.95
70127;BME280;57491;42.694;23.314;2022-08-07T09:59:03;94981.06;;;38.51;21.59
70127;BME280;57491;42.694;23.314;2022-08-07T10:01:47;94985.63;;;38.27;22.61
70127;BME280;57491;42.694;23.314;2022-08-07T10:04:46;94976.53;;;37.85;22.90
70127;BME280;57491;42.694;23.314;2022-08-07T10:07:33;94974.69;;;37.89;22.44
70127;BME280;57491;42.694;23.314;2022-08-07T10:10:16;94973.44;;;38.02;22.53
70127;BME280;57491;42.694;23.314;2022-08-07T10:15:52;94969.78;;;38.49;22.31
70127;BME280;57491;42.694;23.314;2022-08-07T10:18:35;94967.31;;;39.05;22.00
70127;BME280;57491;42.694;23.314;2022-08-07T10:21:17;94969.28;;;39.04;21.34
70127;BME280;57491;42.694;23.314;2022-08-07T10:24:06;94955.81;;;38.31;22.22
70127;BME280;57491;42.694;23.314;2022-08-07T10:26:50;94951.66;;;37.83;22.94
70127;BME280;57491;42.694;23.314;2022-08-07T10:29:44;94961.63;;;37.13;23.63
70127;BME280;57491;42.694;23.314;2022-08-07T10:32:31;94954.16;;;36.50;24.58
70127;BME280;57491;42.694;23.314;2022-08-07T10:35:11;94946.97;;;36.42;25.01
70127;BME280;57491;42.694;23.314;2022-08-07T10:37:54;94956.84;;;37.06;24.31
70127;BME280;57491;42.694;23.314;2022-08-07T10:40:32;94958.56;;;37.30;24.22
70127;BME280;57491;42.694;23.314;2022-08-07T10:43:09;94957.66;;;36.94;24.91
70127;BME280;57491;42.694;23.314;2022-08-07T10:45:44;94959.09;;;36.60;25.52
70127;BME280;57491;42.694;23.314;2022-08-07T10:48:24;94964.88;;;36.19;25.88
70127;BME280;57491;42.694;23.314;2022-08-07T10:50:56;94964.44;;;36.17;26.03
70127;BME280;57491;42.694;23.314;2022-08-07T10:53:27;94957.94;;;35.94;26.03
70127;BME280;57491;42.694;23.314;2022-08-07T10:56:02;94965.63;;;35.55;27.00
70127;BME280;57491;42.694;23.314;2022-08-07T10:58:48;94972.50;;;35.16;27.04
70127;BME280;57491;42.694;23.314;2022-08-07T11:01:36;94962.38;;;34.68;27.92
70127;BME280;57491;42.694;23.314;2022-08-07T11:04:07;94960.75;;;34.22;28.19
70127;BME280;57491;42.694;23.314;2022-08-07T11:06:44;94965.69;;;33.70;29.18
70127;BME280;57491;42.694;23.314;2022-08-07T11:09:18;94958.19;;;33.46;29.50
70127;BME280;57491;42.694;23.314;2022-08-07T11:11:53;94970.56;;;33.97;29.12
70127;BME280;57491;42.694;23.314;2022-08-07T11:14:24;94965.91;;;34.60;28.60
70127;BME280;57491;42.694;23.314;2022-08-07T11:16:56;94965.63;;;35.31;27.70
70127;BME280;57491;42.694;23.314;2022-08-07T11:19:32;94958.56;;;35.39;27.53
70127;BME280;57491;42.694;23.314;2022-08-07T11:22:07;94959.47;;;35.30;26.78
70127;BME280;57491;42.694;23.314;2022-08-07T11:24:39;94956.06;;;35.46;25.72
70127;BME280;57491;42.694;23.314;2022-08-07T11:27:12;94962.81;;;35.64;25.20
70127;BME280;57491;42.694;23.314;2022-08-07T11:29:49;94960.34;;;35.83;24.89
70127;BME280;57491;42.694;23.314;2022-08-07T11:32:25;94940.72;;;35.50;25.48
70127;BME280;57491;42.694;23.314;2022-08-07T11:34:56;94969.84;;;36.17;26.13
70127;BME280;57491;42.694;23.314;2022-08-07T11:37:40;94959.81;;;36.45;25.76
70127;BME280;57491;42.694;23.314;2022-08-07T11:40:21;94971.09;;;36.75;26.29
70127;BME280;57491;42.694;23.314;2022-08-07T11:42:58;94971.94;;;36.36;26.38
70127;BME280;57491;42.694;23.314;2022-08-07T11:45:35;94978.03;;;35.93;27.38
70127;BME280;57491;42.694;23.314;2022-08-07T11:48:20;94946.59;;;35.27;28.06
70127;BME280;57491;42.694;23.314;2022-08-07T11:51:00;94973.47;;;35.00;29.11
70127;BME280;57491;42.694;23.314;2022-08-07T11:53:39;94976.72;;;34.60;29.63
70127;BME280;57491;42.694;23.314;2022-08-07T11:56:21;94980.63;;;34.18;30.15
70127;BME280;57491;42.694;23.314;2022-08-07T11:59:05;94968.88;;;34.34;30.17
70127;BME280;57491;42.694;23.314;2022-08-07T12:01:45;94964.84;;;35.18;28.48
70127;BME280;57491;42.694;23.314;2022-08-07T12:04:30;94964.22;;;36.10;27.45
70127;BME280;57491;42.694;23.314;2022-08-07T12:07:04;94973.78;;;36.75;25.84
70127;BME280;57491;42.694;23.314;2022-08-07T12:09:40;94975.03;;;36.10;26.71
70127;BME280;57491;42.694;23.314;2022-08-07T12:12:11;94971.16;;;35.22;27.88
70127;BME280;57491;42.694;23.314;2022-08-07T12:14:46;94950.03;;;35.04;29.27
70127;BME280;57491;42.694;23.314;2022-08-07T12:17:17;94961.53;;;34.88;29.42
70127;BME280;57491;42.694;23.314;2022-08-07T12:19:50;94972.72;;;34.45;29.06
70127;BME280;57491;42.694;23.314;2022-08-07T12:22:27;94966.22;;;34.05;29.88
70127;BME280;57491;42.694;23.314;2022-08-07T12:25:03;94968.53;;;33.94;30.52
70127;BME280;57491;42.694;23.314;2022-08-07T12:27:54;94966.63;;;33.95;29.99
70127;BME280;57491;42.694;23.314;2022-08-07T12:30:26;94971.44;;;33.89;30.22
70127;BME280;57491;42.694;23.314;2022-08-07T12:32:59;94968.25;;;33.87;30.56
70127;BME280;57491;42.694;23.314;2022-08-07T12:35:31;94960.56;;;33.98;30.57
70127;BME280;57491;42.694;23.314;2022-08-07T12:38:00;94950.97;;;33.88;31.25
70127;BME280;57491;42.694;23.314;2022-08-07T12:40:30;94953.66;;;33.88;31.07
70127;BME280;57491;42.694;23.314;2022-08-07T12:43:03;94948.53;;;33.95;31.31
70127;BME280;57491;42.694;23.314;2022-08-07T12:45:44;94943.88;;;33.84;31.43
70127;BME280;57491;42.694;23.314;2022-08-07T12:48:17;94944.25;;;33.74;30.41
70127;BME280;57491;42.694;23.314;2022-08-07T12:50:53;94938.03;;;33.82;29.76
70127;BME280;57491;42.694;23.314;2022-08-07T12:53:30;94944.13;;;33.70;29.54
70127;BME280;57491;42.694;23.314;2022-08-07T12:56:06;94936.38;;;33.60;29.94
70127;BME280;57491;42.694;23.314;2022-08-07T12:58:36;94941.44;;;33.61;30.62
70127;BME280;57491;42.694;23.314;2022-08-07T13:01:15;94940.66;;;33.61;30.50
70127;BME280;57491;42.694;23.314;2022-08-07T13:03:54;94937.50;;;33.59;30.21
70127;BME280;57491;42.694;23.314;2022-08-07T13:06:37;94922.34;;;33.46;29.74
70127;BME280;57491;42.694;23.314;2022-08-07T13:09:16;94927.19;;;33.61;29.57
70127;BME280;57491;42.694;23.314;2022-08-07T13:11:53;94923.22;;;33.67;29.22
70127;BME280;57491;42.694;23.314;2022-08-07T13:14:37;94924.78;;;33.68;29.39
70127;BME280;57491;42.694;23.314;2022-08-07T13:17:25;94930.66;;;33.61;29.17
70127;BME280;57491;42.694;23.314;2022-08-07T13:19:59;94930.34;;;33.63;29.41
70127;BME280;57491;42.694;23.314;2022-08-07T13:22:30;94918.41;;;33.73;29.31